Time;durP1;ratioP1;P1;durP2;ratioP2;P2;SDS_P1;SDS_P2;PMS_P1;PMS_P2;Temp;Humidity;BMP_temperature;BMP_pressure;BME280_temperature;BME280_humidity;BME280_pressure;Samples;Min_cycle;Max_cycle;Signal;HPM_P1;HPM_P2
2024/02/02 00:52:08;;;;;;;12.30;2.60;;;;;;;3.65;96.94;101053.10;102710;1304;636241;-78
2024/02/02 00:54:54;;;;;;;15.20;2.80;;;;;;;3.65;96.98;101060.91;105275;1271;95896;-79
2024/02/02 00:57:39;;;;;;;14.20;3.10;;;;;;;3.67;96.84;101058.80;105095;1265;95775;-77
2024/02/02 01:00:25;;;;;;;14.40;4.40;;;;;;;3.69;96.86;101061.20;105233;1257;98558;-79
2024/02/02 01:03:11;;;;;;;17.60;4.00;;;;;;;3.72;96.72;101067.52;105923;1262;100417;-79
2024/02/02 01:05:57;;;;;;;17.50;5.10;;;;;;;3.74;96.69;101069.78;105788;1260;142959;-77
2024/02/02 01:08:42;;;;;;;18.70;5.00;;;;;;;3.75;96.51;101067.53;106047;1267;95879;-79
2024/02/02 01:11:28;;;;;;;18.70;4.80;;;;;;;3.78;96.60;101073.21;105945;1261;95904;-78
2024/02/02 01:14:17;;;;;;;17.10;4.30;;;;;;;3.79;96.63;101073.64;106001;1257;97959;-78
2024/02/02 01:17:02;;;;;;;17.30;3.90;;;;;;;3.80;96.60;101075.13;105893;1257;99347;-78
2024/02/02 01:19:48;;;;;;;18.10;4.10;;;;;;;3.81;96.84;101081.55;106000;1259;99046;-78
2024/02/02 01:22:34;;;;;;;15.50;5.40;;;;;;;3.83;96.93;101082.80;106047;1257;96054;-78
2024/02/02 01:25:19;;;;;;;16.80;4.90;;;;;;;3.83;97.01;101082.25;105977;1259;96239;-78
2024/02/02 01:28:05;;;;;;;16.00;7.20;;;;;;;3.83;97.10;101084.55;106014;1261;99927;-78
2024/02/02 01:30:50;;;;;;;28.80;7.70;;;;;;;3.83;97.13;101086.88;105991;1257;99105;-78
2024/02/02 01:33:36;;;;;;;15.80;4.70;;;;;;;3.83;97.32;101090.55;105919;1268;98985;-78
2024/02/02 01:36:22;;;;;;;14.50;4.90;;;;;;;3.84;97.54;101089.98;106027;1257;95912;-78
2024/02/02 01:39:11;;;;;;;11.20;4.50;;;;;;;3.85;97.56;101087.56;105881;1260;96532;-79
2024/02/02 01:41:56;;;;;;;20.60;4.10;;;;;;;3.84;97.35;101086.55;105845;1267;99749;-78
2024/02/02 01:44:42;;;;;;;17.20;4.10;;;;;;;3.86;97.52;101086.45;105907;1269;100159;-78
2024/02/02 01:47:28;;;;;;;14.10;4.30;;;;;;;3.87;97.52;101087.37;105782;1261;97735;-77
2024/02/02 01:50:13;;;;;;;18.80;4.00;;;;;;;3.88;97.66;101085.35;105729;1262;95949;-78
2024/02/02 01:52:59;;;;;;;20.20;4.00;;;;;;;3.89;97.58;101089.20;105781;1257;95926;-77
2024/02/02 01:55:44;;;;;;;22.40;4.80;;;;;;;3.88;97.58;101090.33;105712;1268;98670;-78
2024/02/02 01:58:31;;;;;;;17.20;4.30;;;;;;;3.88;97.64;101097.23;105998;1254;100407;-78
2024/02/02 02:01:16;;;;;;;17.40;3.80;;;;;;;3.87;97.75;101096.73;105991;1266;97709;-77
2024/02/02 02:04:03;;;;;;;13.60;4.40;;;;;;;3.86;97.85;101098.06;106134;1267;96786;-78
2024/02/02 02:06:49;;;;;;;18.40;3.50;;;;;;;3.86;97.82;101096.48;106128;1257;95817;-78
2024/02/02 02:09:34;;;;;;;17.90;5.70;;;;;;;3.86;97.85;101098.06;105621;1258;99961;-78
2024/02/02 02:12:20;;;;;;;13.60;4.00;;;;;;;3.85;97.66;101099.36;105802;1254;99176;-79
2024/02/02 02:15:06;;;;;;;15.00;3.30;;;;;;;3.84;97.63;101102.81;105746;1258;98503;-78
2024/02/02 02:17:52;;;;;;;18.60;4.70;;;;;;;3.84;97.55;101105.85;105688;1269;96064;-77
2024/02/02 02:20:39;;;;;;;22.00;5.10;;;;;;;3.83;97.64;101110.14;106038;1255;96014;-79
2024/02/02 02:23:26;;;;;;;20.50;4.70;;;;;;;3.83;97.54;101108.39;106093;1254;99785;-78
2024/02/02 02:26:11;;;;;;;19.30;4.60;;;;;;;3.84;97.50;101112.77;106075;1261;99187;-78
2024/02/02 02:28:57;;;;;;;18.80;4.30;;;;;;;3.84;97.46;101111.36;106150;1257;98488;-79
2024/02/02 02:31:52;;;;;;;16.60;4.80;;;;;;;3.84;97.55;101111.88;106028;1266;95876;-78
2024/02/02 02:34:37;;;;;;;22.30;5.90;;;;;;;3.84;97.54;101110.96;106113;1260;96354;-77
2024/02/02 02:37:22;;;;;;;18.70;4.80;;;;;;;3.85;97.23;101112.33;106180;1258;98601;-78
2024/02/02 02:40:09;;;;;;;16.90;4.00;;;;;;;3.84;97.11;101116.09;106066;1260;99933;-79
2024/02/02 02:42:55;;;;;;;16.80;3.90;;;;;;;3.85;97.17;101112.48;106048;1260;97729;-79
2024/02/02 02:45:41;;;;;;;18.80;3.80;;;;;;;3.85;96.99;101110.55;106182;1257;95993;-79
2024/02/02 02:48:26;;;;;;;22.20;3.90;;;;;;;3.84;96.92;101111.83;106082;1260;97007;-78
2024/02/02 02:51:12;;;;;;;20.70;4.00;;;;;;;3.85;96.84;101111.80;106237;1257;98666;-79
2024/02/02 02:53:58;;;;;;;18.70;3.60;;;;;;;3.86;96.57;101106.39;106072;1257;99045;-79
2024/02/02 02:56:44;;;;;;;25.00;4.70;;;;;;;3.88;96.38;101110.15;106010;1254;98138;-77
2024/02/02 02:59:32;;;;;;;15.00;4.80;;;;;;;3.88;96.39;101108.70;106097;1266;95931;-78
2024/02/02 03:02:18;;;;;;;20.90;4.90;;;;;;;3.87;96.28;101114.40;106046;1254;96916;-79
2024/02/02 03:05:05;;;;;;;24.20;4.90;;;;;;;3.86;96.06;101116.83;106139;1257;100223;-78
2024/02/02 03:07:52;;;;;;;22.40;4.70;;;;;;;3.84;95.78;101120.12;106206;1255;99073;-79
2024/02/02 03:10:38;;;;;;;22.20;5.90;;;;;;;3.83;95.64;101114.97;106225;1257;97760;-78
2024/02/02 03:13:23;;;;;;;18.40;6.50;;;;;;;3.80;95.43;101115.54;105992;1256;96649;-79
2024/02/02 03:16:09;;;;;;;20.60;4.90;;;;;;;3.78;95.25;101118.04;106102;1260;95893;-80
2024/02/02 03:18:54;;;;;;;20.50;4.10;;;;;;;3.75;95.10;101116.90;106155;1261;98629;-78
2024/02/02 03:21:40;;;;;;;15.20;3.90;;;;;;;3.74;95.06;101118.73;106043;1257;99071;-79
2024/02/02 03:24:27;;;;;;;21.40;5.00;;;;;;;3.73;95.06;101121.52;106173;1254;97717;-79
2024/02/02 03:27:12;;;;;;;17.00;4.30;;;;;;;3.71;94.85;101124.31;106085;1260;95912;-79
2024/02/02 03:29:58;;;;;;;22.90;4.40;;;;;;;3.68;94.95;101132.65;106037;1254;95871;-78
2024/02/02 03:32:44;;;;;;;19.50;4.80;;;;;;;3.66;94.87;101137.81;106152;1260;100449;-78
2024/02/02 03:35:29;;;;;;;23.60;3.70;;;;;;;3.64;94.87;101145.08;107571;1254;99109;-78
2024/02/02 03:38:15;;;;;;;16.50;3.60;;;;;;;3.62;94.74;101148.75;106091;1257;99098;-79
2024/02/02 03:41:01;;;;;;;23.70;4.00;;;;;;;3.60;94.83;101157.56;106129;1260;95825;-78
2024/02/02 03:43:48;;;;;;;21.30;4.40;;;;;;;3.58;94.73;101162.43;105770;1254;95943;-78
2024/02/02 03:46:34;;;;;;;19.40;3.70;;;;;;;3.58;94.82;101161.46;105850;1256;99965;-78
2024/02/02 03:49:19;;;;;;;23.20;4.40;;;;;;;3.58;94.85;101166.37;106162;1254;99131;-79
2024/02/02 03:52:07;;;;;;;22.60;3.90;;;;;;;3.59;94.99;101168.44;106074;1263;97788;-78
2024/02/02 03:54:53;;;;;;;17.50;3.70;;;;;;;3.59;94.98;101168.96;106071;1255;95822;-78
2024/02/02 03:57:38;;;;;;;19.50;3.20;;;;;;;3.60;95.18;101175.24;106181;1254;95880;-80
2024/02/02 04:00:24;;;;;;;24.80;4.50;;;;;;;3.62;95.13;101177.55;106460;1257;98791;-78
2024/02/02 04:03:10;;;;;;;32.50;4.70;;;;;;;3.63;95.07;101174.45;106133;1254;99134;-78
2024/02/02 04:05:56;;;;;;;23.40;4.00;;;;;;;3.64;95.01;101169.95;106081;1259;97819;-78
2024/02/02 04:08:42;;;;;;;25.10;4.30;;;;;;;3.64;95.01;101170.30;106147;1255;95902;-78
2024/02/02 04:11:27;;;;;;;36.50;5.00;;;;;;;3.64;95.01;101171.00;106136;1254;95826;-78
2024/02/02 04:14:13;;;;;;;17.50;4.40;;;;;;;3.64;95.02;101169.95;106241;1256;98777;-79
2024/02/02 04:16:59;;;;;;;16.00;3.00;;;;;;;3.63;94.80;101171.77;106179;1257;100356;-80
2024/02/02 04:19:44;;;;;;;26.40;5.50;;;;;;;3.62;94.79;101172.79;106105;1254;97801;-78
2024/02/02 04:22:30;;;;;;;31.40;5.00;;;;;;;3.60;94.70;101173.44;106179;1258;95877;-79
2024/02/02 04:25:15;;;;;;;17.30;3.40;;;;;;;3.58;94.61;101173.06;106267;1256;95759;-78
2024/02/02 04:28:02;;;;;;;20.00;4.10;;;;;;;3.57;94.66;101184.79;106274;1257;98845;-79
2024/02/02 04:30:48;;;;;;;19.90;4.10;;;;;;;3.54;94.55;101187.34;106156;1257;99111;-79
2024/02/02 04:33:34;;;;;;;38.70;5.80;;;;;;;3.52;94.44;101190.58;106074;1254;97723;-79
2024/02/02 04:36:19;;;;;;;23.10;4.80;;;;;;;3.49;94.66;101193.96;106043;1256;95879;-78
2024/02/02 04:39:05;;;;;;;19.40;4.90;;;;;;;3.47;94.63;101200.13;106217;1257;95906;-79
2024/02/02 04:41:51;;;;;;;25.30;4.30;;;;;;;3.45;94.82;101203.29;106147;1257;98629;-79
2024/02/02 04:44:36;;;;;;;21.00;4.10;;;;;;;3.44;94.79;101203.77;106151;1254;100468;-78
2024/02/02 04:47:22;;;;;;;19.70;6.00;;;;;;;3.42;94.68;101202.48;106131;1261;97762;-80
2024/02/02 04:50:09;;;;;;;18.60;5.80;;;;;;;3.41;94.73;101205.28;107203;1254;95863;-80
2024/02/02 04:52:54;;;;;;;20.90;6.50;;;;;;;3.40;94.76;101208.04;107088;1260;96817;-78
2024/02/02 04:55:40;;;;;;;25.70;5.80;;;;;;;3.38;94.71;101209.55;106080;1259;99210;-79
2024/02/02 04:58:26;;;;;;;27.50;6.30;;;;;;;3.37;94.72;101208.96;106156;1254;100735;-79
2024/02/02 05:01:11;;;;;;;22.20;4.80;;;;;;;3.34;94.74;101206.00;106147;1260;97826;-79
2024/02/02 05:03:57;;;;;;;22.30;4.00;;;;;;;3.33;94.84;101202.20;106164;1257;97307;-78
2024/02/02 05:06:42;;;;;;;23.30;4.30;;;;;;;3.32;95.03;101200.38;106218;1254;95868;-79
2024/02/02 05:09:28;;;;;;;20.90;4.00;;;;;;;3.31;95.01;101199.88;106252;1254;98694;-79
2024/02/02 05:12:16;;;;;;;24.00;5.20;;;;;;;3.31;95.03;101196.24;106184;1257;100345;-79
2024/02/02 05:15:02;;;;;;;17.70;3.70;;;;;;;3.30;95.18;101198.77;106166;1257;97720;-77
2024/02/02 05:17:47;;;;;;;19.60;4.30;;;;;;;3.28;95.16;101200.73;106189;1257;96356;-79
2024/02/02 05:20:33;;;;;;;19.70;3.70;;;;;;;3.26;95.16;101201.61;106245;1254;95971;-79
2024/02/02 05:23:18;;;;;;;16.10;3.50;;;;;;;3.24;95.38;101205.25;106335;1254;98771;-79
2024/02/02 05:26:04;;;;;;;16.50;3.90;;;;;;;3.24;95.40;101208.78;106319;1257;100540;-79
2024/02/02 05:28:49;;;;;;;21.70;3.90;;;;;;;3.23;95.27;101203.39;106287;1254;99012;-79
2024/02/02 05:31:35;;;;;;;22.20;4.40;;;;;;;3.23;95.46;101205.35;106114;1259;96703;-79
2024/02/02 05:34:20;;;;;;;22.20;3.70;;;;;;;3.23;95.42;101206.63;106085;1254;97049;-79
2024/02/02 05:37:06;;;;;;;26.40;4.00;;;;;;;3.22;95.58;101211.41;106075;1254;100011;-79
2024/02/02 05:39:52;;;;;;;19.00;3.40;;;;;;;3.21;95.46;101212.42;106133;1254;100893;-79
2024/02/02 05:42:37;;;;;;;25.30;5.80;;;;;;;3.19;95.48;101208.48;106350;1254;97816;-80
2024/02/02 05:45:23;;;;;;;30.20;5.00;;;;;;;3.16;95.43;101214.20;106982;1255;97849;-77
2024/02/02 05:48:08;;;;;;;16.30;4.20;;;;;;;3.13;95.67;101219.69;105728;1257;96511;-78
2024/02/02 05:50:54;;;;;;;20.80;3.70;;;;;;;3.11;95.72;101220.73;105792;1254;99978;-78
2024/02/02 05:53:40;;;;;;;22.90;4.50;;;;;;;3.10;95.87;101220.13;105646;1254;99602;-78
2024/02/02 05:56:25;;;;;;;25.10;5.30;;;;;;;3.10;95.87;101226.89;106351;1257;97718;-78
2024/02/02 05:59:11;;;;;;;24.60;5.20;;;;;;;3.08;95.98;101224.35;106150;1257;96617;-78
2024/02/02 06:01:57;;;;;;;22.00;4.30;;;;;;;3.07;95.94;101226.56;106426;1251;96546;-78
2024/02/02 06:04:43;;;;;;;25.50;4.60;;;;;;;3.08;95.98;101228.43;106344;1253;100091;-79
2024/02/02 06:07:29;;;;;;;21.20;4.20;;;;;;;3.08;95.97;101235.30;106436;1253;99044;-79
2024/02/02 06:10:14;;;;;;;17.70;4.00;;;;;;;3.07;96.01;101240.66;106280;1254;99423;-79
2024/02/02 06:13:00;;;;;;;20.30;4.70;;;;;;;3.08;96.13;101239.91;106411;1251;96715;-79
2024/02/02 06:15:46;;;;;;;18.70;4.80;;;;;;;3.07;96.07;101245.61;106389;1251;96613;-78
2024/02/02 06:18:32;;;;;;;22.20;3.60;;;;;;;3.07;96.08;101246.52;106134;1251;100047;-78
2024/02/02 06:21:17;;;;;;;29.20;5.50;;;;;;;3.07;96.09;101246.52;105963;1256;100060;-79
2024/02/02 06:24:03;;;;;;;27.00;4.40;;;;;;;3.06;95.89;101246.75;106451;1251;98579;-78
2024/02/02 06:26:48;;;;;;;14.60;4.40;;;;;;;3.06;96.00;101249.08;106498;1251;96477;-78
2024/02/02 06:29:34;;;;;;;18.50;4.50;;;;;;;3.05;95.99;101251.27;106421;1255;97123;-79
2024/02/02 06:32:22;;;;;;;17.10;5.10;;;;;;;3.05;96.15;101253.42;106425;1257;99987;-79
2024/02/02 06:35:07;;;;;;;20.80;6.40;;;;;;;3.06;96.11;101249.59;106389;1251;100393;-79
2024/02/02 06:37:54;;;;;;;21.70;4.90;;;;;;;3.08;95.99;101249.08;106403;1255;97727;-78
2024/02/02 06:40:39;;;;;;;25.00;6.50;;;;;;;3.11;96.07;101255.21;108211;1252;95772;-79
2024/02/02 06:43:25;;;;;;;18.70;5.80;;;;;;;3.14;96.11;101253.88;106300;1251;97040;-79
2024/02/02 06:46:11;;;;;;;21.10;6.30;;;;;;;3.17;96.12;101259.29;106307;1255;100130;-79
2024/02/02 06:48:56;;;;;;;23.60;7.60;;;;;;;3.21;96.25;101264.96;106389;1255;99137;-79
2024/02/02 06:51:42;;;;;;;33.20;8.80;;;;;;;3.25;96.10;101255.86;106297;1251;98022;-79
2024/02/02 06:54:27;;;;;;;23.30;9.20;;;;;;;3.28;95.99;101255.08;106421;1251;96697;-78
2024/02/02 06:57:14;;;;;;;24.50;8.40;;;;;;;3.31;95.85;101255.71;106425;1255;97238;-79
2024/02/02 07:00:00;;;;;;;24.80;7.10;;;;;;;3.33;95.84;101255.19;106268;1255;101315;-79
2024/02/02 07:02:46;;;;;;;22.90;6.20;;;;;;;3.35;95.92;101255.41;106489;1251;99184;-78
2024/02/02 07:05:32;;;;;;;21.50;6.00;;;;;;;3.37;95.90;101258.89;106419;1254;97755;-78
2024/02/02 07:08:19;;;;;;;20.50;4.60;;;;;;;3.40;95.75;101263.27;106386;1255;96639;-79
2024/02/02 07:11:13;;;;;;;24.40;4.80;;;;;;;3.42;95.61;101262.69;107178;1251;96578;-80
2024/02/02 07:13:59;;;;;;;20.20;5.90;;;;;;;3.44;95.39;101265.23;106073;1257;101249;-76
2024/02/02 07:16:46;;;;;;;26.00;5.10;;;;;;;3.46;95.02;101265.55;106345;1256;99250;-78
2024/02/02 07:19:40;;;;;;;30.10;5.30;;;;;;;3.49;94.76;101267.13;106205;1251;97793;-79
2024/02/02 07:22:42;;;;;;;22.30;4.60;;;;;;;3.50;94.61;101265.94;106357;1255;97196;-79
2024/02/02 07:25:36;;;;;;;19.00;4.00;;;;;;;3.51;94.33;101264.42;106960;1251;97077;-78
2024/02/02 07:28:31;;;;;;;17.80;4.00;;;;;;;3.53;93.86;101269.77;106442;1251;101304;-79
2024/02/02 07:31:36;;;;;;;24.90;4.50;;;;;;;3.55;93.75;101272.64;107351;1256;100024;-81
2024/02/02 07:34:42;;;;;;;19.40;4.60;;;;;;;3.55;93.48;101277.01;107367;1251;97715;-80
2024/02/02 07:37:45;;;;;;;27.20;4.60;;;;;;;3.56;93.30;101278.34;106820;1253;97399;-78
2024/02/02 07:41:03;;;;;;;21.60;4.50;;;;;;;3.58;93.26;101280.97;106302;1251;97788;-78
2024/02/02 07:43:49;;;;;;;19.00;4.80;;;;;;;3.61;93.13;101280.02;106360;1254;100882;-87
2024/02/02 07:46:35;;;;;;;25.40;5.70;;;;;;;3.63;93.04;101279.48;107442;1251;99288;-80
2024/02/02 07:49:21;;;;;;;23.60;5.00;;;;;;;3.65;92.69;101276.73;106709;1251;97720;-81
2024/02/02 07:52:06;;;;;;;18.40;6.50;;;;;;;3.67;92.33;101275.80;106441;1251;97770;-82
2024/02/02 07:54:51;;;;;;;22.10;5.50;;;;;;;3.70;92.49;101275.77;106978;1251;96496;-82
2024/02/02 07:57:37;;;;;;;14.10;5.30;;;;;;;3.76;92.49;101279.10;106722;1253;101858;-81
2024/02/02 08:00:22;;;;;;;22.30;7.30;;;;;;;3.81;92.41;101284.20;106726;1252;100134;-82
2024/02/02 08:03:08;;;;;;;24.20;8.20;;;;;;;3.83;92.04;101283.81;106609;1253;98515;-80
2024/02/02 08:05:53;;;;;;;21.60;6.10;;;;;;;3.85;91.64;101281.02;106522;1251;96604;-82
2024/02/02 08:08:39;;;;;;;37.50;9.30;;;;;;;3.86;91.28;101280.91;106480;1251;96692;-80
2024/02/02 08:11:26;;;;;;;20.70;6.20;;;;;;;3.87;91.05;101282.28;106468;1251;101176;-82
2024/02/02 08:14:11;;;;;;;23.60;4.90;;;;;;;3.87;90.94;101286.46;106767;1255;100320;-81
2024/02/02 08:16:57;;;;;;;24.30;7.10;;;;;;;3.89;90.62;101284.55;106633;1267;97886;-83
2024/02/02 08:19:42;;;;;;;24.10;5.40;;;;;;;3.90;90.51;101288.36;106781;1257;96517;-84
2024/02/02 08:22:28;;;;;;;24.90;5.20;;;;;;;3.92;90.45;101292.25;106688;1251;96527;-82
2024/02/02 08:25:14;;;;;;;21.50;4.20;;;;;;;3.95;90.62;101286.42;106646;1251;99928;-82
2024/02/02 08:28:00;;;;;;;34.50;5.20;;;;;;;3.98;90.51;101286.16;106636;1256;99172;-82
2024/02/02 08:30:47;;;;;;;25.40;5.90;;;;;;;4.00;90.29;101282.42;106681;1254;98302;-82
2024/02/02 08:33:33;;;;;;;23.10;6.20;;;;;;;4.02;90.61;101277.96;106803;1251;96596;-82
2024/02/02 08:36:19;;;;;;;22.80;5.30;;;;;;;4.07;90.88;101277.05;106925;1251;96498;-81
2024/02/02 08:39:08;;;;;;;18.30;5.70;;;;;;;4.11;91.19;101277.77;106897;1251;100599;-80
2024/02/02 08:41:54;;;;;;;20.70;5.30;;;;;;;4.14;91.14;101275.39;106880;1252;99056;-81
2024/02/02 08:44:40;;;;;;;31.90;7.30;;;;;;;4.15;91.45;101275.81;106823;1256;97759;-78
2024/02/02 08:47:29;;;;;;;24.80;7.00;;;;;;;4.19;91.96;101277.23;106819;1251;96619;-82
2024/02/02 08:50:16;;;;;;;21.60;6.40;;;;;;;4.23;92.16;101277.23;108666;1251;94215;-82
2024/02/02 08:53:01;;;;;;;22.90;7.40;;;;;;;4.26;92.16;101281.79;107507;1253;100956;-80
2024/02/02 08:55:49;;;;;;;31.10;5.80;;;;;;;4.28;92.09;101284.99;106753;1251;99224;-81
2024/02/02 08:58:36;;;;;;;23.30;5.50;;;;;;;4.28;92.22;101288.35;106747;1251;97777;-82
2024/02/02 09:01:42;;;;;;;21.90;4.80;;;;;;;4.28;92.62;101285.48;106852;1253;95971;-81
2024/02/02 09:04:52;;;;;;;31.40;5.40;;;;;;;4.30;92.85;101289.73;106606;1254;97131;-81
2024/02/02 09:07:37;;;;;;;30.60;6.50;;;;;;;4.33;92.96;101289.15;106819;1251;100002;-81
2024/02/02 09:10:29;;;;;;;22.30;5.90;;;;;;;4.39;93.21;101294.32;106788;1252;99132;-79
2024/02/02 09:13:24;;;;;;;29.00;7.30;;;;;;;4.48;93.55;101295.27;106701;1253;97780;-81
2024/02/02 09:16:13;;;;;;;38.50;9.20;;;;;;;4.57;93.77;101299.31;107000;1257;96484;-81
2024/02/02 09:18:59;;;;;;;28.90;8.10;;;;;;;4.61;93.64;101302.44;106907;1251;97150;-81
2024/02/02 09:21:45;;;;;;;24.80;6.60;;;;;;;4.59;92.91;101303.99;106776;1251;100107;-82
2024/02/02 09:24:44;;;;;;;24.60;7.80;;;;;;;4.59;93.40;101303.65;106893;1251;99059;-81
2024/02/02 09:27:38;;;;;;;39.00;5.90;;;;;;;4.62;93.78;101304.64;106902;1256;97820;-82
2024/02/02 09:30:24;;;;;;;22.70;5.80;;;;;;;4.66;93.90;101303.98;106728;1257;96613;-81
2024/02/02 09:33:31;;;;;;;27.90;8.30;;;;;;;4.67;93.64;101305.12;106925;1252;96507;-82
2024/02/02 09:36:22;;;;;;;23.90;6.90;;;;;;;4.68;93.79;101305.73;106873;1256;100092;-81
2024/02/02 09:39:46;;;;;;;23.90;7.80;;;;;;;4.73;94.11;101309.70;106818;1251;99816;-82
2024/02/02 09:42:45;;;;;;;26.10;8.20;;;;;;;4.77;93.86;101304.27;106868;1251;97771;-83
2024/02/02 09:45:59;;;;;;;27.90;8.00;;;;;;;4.79;93.90;101305.55;106814;1251;96553;-81
2024/02/02 09:48:54;;;;;;;26.70;11.60;;;;;;;4.76;93.94;101305.77;106740;1251;97753;-83
2024/02/02 09:52:34;;;;;;;32.90;8.10;;;;;;;4.76;93.94;101304.05;106791;1251;99967;-81
2024/02/02 09:55:35;;;;;;;24.80;7.80;;;;;;;4.80;94.32;101300.48;106287;1253;99102;-82
2024/02/02 09:58:27;;;;;;;31.50;8.90;;;;;;;4.82;94.14;101295.90;106882;1251;99183;-82
2024/02/02 10:01:38;;;;;;;31.60;10.90;;;;;;;4.83;94.37;101294.84;107856;1251;96579;-82
2024/02/02 10:04:48;;;;;;;26.20;7.10;;;;;;;4.89;94.75;101295.95;106857;1254;96633;-83
2024/02/02 10:07:51;;;;;;;22.10;7.60;;;;;;;4.93;94.28;101294.38;106914;1251;101192;-83
2024/02/02 10:11:15;;;;;;;32.90;9.60;;;;;;;4.94;94.09;101292.11;106806;1251;99181;-82
2024/02/02 10:14:25;;;;;;;26.10;10.40;;;;;;;4.97;93.89;101282.15;106883;1255;99103;-83
2024/02/02 10:17:28;;;;;;;29.60;7.70;;;;;;;5.03;94.18;101287.80;106851;1253;96465;-82
2024/02/02 10:20:47;;;;;;;33.10;10.30;;;;;;;5.07;94.07;101291.33;106670;1255;97484;-82
2024/02/02 10:23:52;;;;;;;19.80;6.60;;;;;;;5.10;93.78;101284.65;106765;1251;100628;-82
2024/02/02 10:27:05;;;;;;;22.10;6.30;;;;;;;5.14;93.80;101285.20;106770;1253;100000;-82
2024/02/02 10:30:09;;;;;;;19.80;6.60;;;;;;;5.19;93.95;101284.19;106788;1251;97702;-82
2024/02/02 10:33:25;;;;;;;22.30;6.50;;;;;;;5.25;94.18;101282.66;106690;1252;96611;-82
2024/02/02 10:36:35;;;;;;;21.70;8.20;;;;;;;5.32;94.04;101286.80;106656;1251;96525;-81
2024/02/02 10:39:43;;;;;;;26.20;7.00;;;;;;;5.36;93.81;101284.83;106814;1253;99995;-82
2024/02/02 10:42:45;;;;;;;25.40;6.30;;;;;;;5.39;93.60;101285.23;106841;1253;98982;-82
2024/02/02 10:46:00;;;;;;;24.30;5.80;;;;;;;5.42;93.07;101281.97;106887;1251;98907;-81
2024/02/02 10:48:52;;;;;;;22.00;6.70;;;;;;;5.40;92.44;101277.89;106712;1257;97030;-81
2024/02/02 10:52:01;;;;;;;26.30;6.60;;;;;;;5.37;92.30;101274.64;106785;1251;97013;-82
2024/02/02 10:55:11;;;;;;;20.80;4.80;;;;;;;5.37;92.36;101272.70;106833;1251;100040;-82
2024/02/02 10:58:40;;;;;;;29.80;8.10;;;;;;;5.41;92.57;101266.11;106721;1257;99155;-82
2024/02/02 11:01:35;;;;;;;25.00;6.30;;;;;;;5.46;92.73;101258.93;106700;1256;99079;-82
2024/02/02 11:04:56;;;;;;;27.70;7.20;;;;;;;5.53;93.03;101252.84;106801;1251;96527;-82
2024/02/02 11:08:00;;;;;;;29.90;6.80;;;;;;;5.57;92.71;101251.36;106923;1251;96602;-82
2024/02/02 11:10:55;;;;;;;26.10;6.00;;;;;;;5.58;92.47;101252.76;106894;1251;101232;-82
2024/02/02 11:14:26;;;;;;;28.20;8.70;;;;;;;5.58;92.41;101251.99;106828;1251;99119;-81
2024/02/02 11:18:06;;;;;;;26.00;6.20;;;;;;;5.60;92.70;101257.13;106900;1254;97672;-80
2024/02/02 11:21:20;;;;;;;21.70;6.20;;;;;;;5.61;92.44;101251.71;106121;1257;96559;-82
2024/02/02 11:24:31;;;;;;;33.10;7.80;;;;;;;5.60;92.29;101253.38;106865;1253;97102;-82
2024/02/02 11:27:24;;;;;;;18.90;6.00;;;;;;;5.62;92.38;101252.14;106540;1256;100030;-81
2024/02/02 11:30:30;;;;;;;24.70;7.00;;;;;;;5.63;92.55;101247.66;107777;1251;99072;-86
2024/02/02 11:33:39;;;;;;;22.10;5.90;;;;;;;5.63;92.72;101249.80;106639;1251;99037;-88
2024/02/02 11:36:53;;;;;;;25.20;6.00;;;;;;;5.64;92.44;101250.55;106995;1257;96528;-83
2024/02/02 11:39:59;;;;;;;22.60;5.70;;;;;;;5.64;92.18;101249.21;106636;1249;97016;-81
2024/02/02 11:42:45;;;;;;;18.70;6.10;;;;;;;5.67;92.80;101251.73;106606;1251;100070;-84
2024/02/02 11:45:41;;;;;;;19.60;6.60;;;;;;;5.71;92.81;101249.44;106474;1251;100143;-83
2024/02/02 11:48:35;;;;;;;19.10;6.80;;;;;;;5.71;92.59;101247.42;106377;1250;99684;-80
2024/02/02 11:51:21;;;;;;;22.10;6.30;;;;;;;5.75;92.82;101240.85;106507;1253;96655;-83
2024/02/02 11:54:18;;;;;;;20.60;7.40;;;;;;;5.76;92.12;101238.08;107162;1253;96582;-87
2024/02/02 11:57:07;;;;;;;26.60;7.80;;;;;;;5.76;92.47;101237.43;106984;1253;101194;-88
2024/02/02 11:59:56;;;;;;;24.10;6.40;;;;;;;5.77;92.30;101234.14;107162;1255;99792;-87
2024/02/02 12:03:20;;;;;;;17.70;5.10;;;;;;;5.76;91.81;101230.48;106996;1255;98251;-87
2024/02/02 12:06:19;;;;;;;18.30;5.40;;;;;;;5.76;91.38;101225.54;107203;1253;96691;-88
2024/02/02 12:09:25;;;;;;;21.30;6.70;;;;;;;5.78;91.51;101214.16;106874;1253;97087;-87
2024/02/02 12:12:21;;;;;;;21.10;5.90;;;;;;;5.82;91.45;101205.67;107023;1253;100045;-88
2024/02/02 12:15:10;;;;;;;21.60;6.40;;;;;;;5.83;91.04;101202.20;107224;1253;99268;-86
2024/02/02 12:17:56;;;;;;;21.90;7.00;;;;;;;5.85;91.35;101197.38;107383;1251;99259;-89
2024/02/02 12:20:42;;;;;;;23.40;7.70;;;;;;;5.89;91.69;101192.94;106896;1253;96548;-87
2024/02/02 12:23:28;;;;;;;28.20;8.70;;;;;;;5.91;91.58;101194.77;106980;1253;96497;-80
2024/02/02 12:26:15;;;;;;;19.40;7.60;;;;;;;5.86;90.74;101192.73;106721;1253;100006;-87
2024/02/02 12:29:01;;;;;;;26.20;8.90;;;;;;;5.82;90.65;101190.79;106810;1255;99192;-87
2024/02/02 12:31:48;;;;;;;21.50;7.20;;;;;;;5.79;90.79;101191.77;106458;1251;99911;-83
2024/02/02 12:34:35;;;;;;;21.20;8.30;;;;;;;5.76;90.67;101190.95;106592;1252;97922;-83
2024/02/02 12:37:20;;;;;;;28.50;7.50;;;;;;;5.71;90.54;101183.86;106555;1253;97986;-82
2024/02/02 12:40:07;;;;;;;23.10;7.70;;;;;;;5.67;90.82;101180.81;106658;1253;100001;-81
2024/02/02 12:42:57;;;;;;;21.30;7.70;;;;;;;5.64;91.07;101186.39;106795;1253;99330;-81
2024/02/02 12:45:43;;;;;;;22.30;6.50;;;;;;;5.59;90.99;101183.89;106844;1253;99600;-82
2024/02/02 12:48:28;;;;;;;22.50;7.00;;;;;;;5.55;91.38;101183.23;107061;1253;96506;-81
2024/02/02 12:51:14;;;;;;;23.90;7.20;;;;;;;5.55;91.73;101178.30;107013;1251;98223;-82
2024/02/02 12:54:00;;;;;;;31.60;9.80;;;;;;;5.55;91.94;101169.60;106860;1251;100062;-81
2024/02/02 12:56:50;;;;;;;19.30;9.80;;;;;;;5.51;91.82;101168.85;106871;1253;100250;-81
2024/02/02 12:59:36;;;;;;;28.00;8.40;;;;;;;5.48;92.28;101173.19;106916;1252;97744;-80
2024/02/02 13:02:22;;;;;;;21.80;8.60;;;;;;;5.49;92.60;101170.94;106876;1255;96682;-81
2024/02/02 13:05:18;;;;;;;24.20;7.20;;;;;;;5.51;92.56;101168.71;106869;1252;104745;-81
2024/02/02 13:08:04;;;;;;;23.10;8.20;;;;;;;5.49;92.69;101166.23;107044;1255;99987;-82
2024/02/02 13:10:51;;;;;;;23.00;7.80;;;;;;;5.48;92.66;101160.94;107015;1253;99751;-82
2024/02/02 13:13:40;;;;;;;24.20;7.80;;;;;;;5.48;92.64;101157.94;106982;1253;97719;-81
2024/02/02 13:16:30;;;;;;;21.20;8.20;;;;;;;5.48;92.95;101154.29;107158;1253;96620;-82
2024/02/02 13:19:33;;;;;;;28.60;10.30;;;;;;;5.47;92.86;101151.48;107130;1255;97139;-82
2024/02/02 13:22:29;;;;;;;24.80;10.20;;;;;;;5.48;93.09;101142.19;107120;1253;100009;-81
2024/02/02 13:25:24;;;;;;;22.50;8.50;;;;;;;5.50;93.17;101139.23;107120;1252;99197;-82
2024/02/02 13:28:15;;;;;;;32.40;12.60;;;;;;;5.51;93.08;101136.85;107003;1253;97724;-81
2024/02/02 13:31:04;;;;;;;26.40;8.90;;;;;;;5.51;93.33;101132.36;106960;1254;96649;-82
2024/02/02 13:33:56;;;;;;;27.70;9.60;;;;;;;5.52;93.24;101132.44;106943;1251;96413;-83
2024/02/02 13:36:43;;;;;;;21.90;10.00;;;;;;;5.53;93.28;101127.27;106637;1255;100028;-85
2024/02/02 13:39:33;;;;;;;25.30;10.70;;;;;;;5.52;93.32;101125.55;106826;1255;101270;-85
2024/02/02 13:42:19;;;;;;;26.90;11.40;;;;;;;5.52;93.49;101117.27;106508;1252;99035;-84
2024/02/02 13:45:20;;;;;;;24.60;10.40;;;;;;;5.55;93.81;101110.82;106502;1255;97121;-82
2024/02/02 13:48:13;;;;;;;23.50;9.40;;;;;;;5.57;93.75;101111.48;106833;1258;96575;-85
2024/02/02 13:51:02;;;;;;;25.70;8.90;;;;;;;5.57;93.52;101107.16;106810;1257;101334;-87
2024/02/02 13:53:50;;;;;;;27.30;9.30;;;;;;;5.59;93.97;101100.27;106458;1253;100415;-83